createdAt,value
2019-01-29T00:00:48.519Z,10.27
2019-01-29T00:03:21.904Z,10.73
2019-01-29T00:06:08.994Z,9.47
2019-01-29T00:08:55.690Z,9.50
2019-01-29T00:11:31.321Z,8.77
2019-01-29T00:14:06.413Z,9.17
2019-01-29T00:16:50.555Z,6.70
2019-01-29T00:19:24.290Z,7.70
2019-01-29T00:22:19.289Z,7.40
2019-01-29T00:24:52.842Z,10.73
2019-01-29T00:27:27.545Z,8.23
2019-01-29T00:30:00.202Z,7.70
2019-01-29T00:32:31.763Z,8.20
2019-01-29T00:35:01.782Z,6.73
2019-01-29T00:37:33.034Z,6.83
2019-01-29T00:54:21.027Z,9.90
2019-01-29T00:56:57.521Z,7.17
2019-01-29T00:59:28.117Z,9.63
2019-01-29T01:01:58.012Z,6.93
2019-01-29T01:04:29.084Z,6.17
2019-01-29T01:06:59.834Z,8.50
2019-01-29T01:09:30.620Z,8.63
2019-01-29T01:12:07.468Z,9.13
2019-01-29T01:14:52.554Z,8.30
2019-01-29T01:17:33.678Z,5.60
2019-01-29T01:20:13.392Z,6.37
2019-01-29T01:23:03.765Z,6.53
2019-01-29T01:25:37.281Z,5.23
2019-01-29T01:28:07.171Z,6.37
2019-01-29T01:30:37.226Z,6.13
2019-01-29T01:33:47.833Z,6.53
2019-01-29T01:36:19.580Z,6.50
2019-01-29T01:41:38.689Z,7.40
2019-01-29T01:44:09.105Z,5.87
2019-01-29T01:46:40.081Z,5.63
2019-01-29T01:49:10.317Z,6.07
2019-01-29T01:51:41.221Z,6.20
2019-01-29T01:54:14.267Z,5.80
2019-01-29T01:56:44.873Z,5.23
2019-01-29T01:59:18.151Z,6.63
2019-01-29T02:01:54.623Z,9.00
2019-01-29T02:04:27.435Z,8.83
2019-01-29T02:06:57.617Z,5.03
2019-01-29T02:09:27.970Z,6.73
2019-01-29T02:11:58.410Z,6.37
2019-01-29T02:14:32.154Z,5.90
2019-01-29T02:17:02.173Z,6.57
2019-01-29T02:19:32.205Z,8.00
2019-01-29T02:22:01.834Z,6.20
2019-01-29T02:24:32.183Z,5.20
2019-01-29T02:27:03.401Z,5.83
2019-01-29T02:29:33.598Z,7.57
2019-01-29T02:32:03.633Z,9.20
2019-01-29T02:34:52.210Z,7.30
2019-01-29T02:37:22.405Z,7.73
2019-01-29T02:39:51.843Z,7.03
2019-01-29T02:42:24.918Z,8.47
2019-01-29T02:45:08.969Z,10.30
2019-01-29T02:47:52.876Z,5.80
2019-01-29T02:50:35.271Z,6.37
2019-01-29T02:53:06.391Z,8.10
2019-01-29T02:55:37.380Z,6.73
2019-01-29T02:58:09.295Z,9.60
2019-01-29T03:00:39.662Z,8.30
2019-01-29T03:03:12.576Z,6.90
2019-01-29T03:05:42.565Z,6.43
2019-01-29T03:08:20.087Z,5.90
2019-01-29T03:10:52.765Z,7.60
2019-01-29T03:13:23.173Z,6.80
2019-01-29T03:16:01.022Z,7.07
2019-01-29T03:18:31.102Z,5.43
2019-01-29T03:21:05.720Z,6.73
2019-01-29T03:23:36.347Z,7.27
2019-01-29T03:26:06.831Z,6.97
2019-01-29T03:28:36.909Z,6.07
2019-01-29T03:31:07.200Z,6.13
2019-01-29T03:33:38.401Z,6.50
2019-01-29T03:36:08.801Z,7.70
2019-01-29T03:38:39.444Z,6.17
2019-01-29T03:41:10.419Z,5.03
2019-01-29T03:43:48.101Z,12.30
2019-01-29T03:46:18.864Z,7.53
2019-01-29T03:48:59.102Z,6.30
2019-01-29T03:51:29.281Z,10.40
2019-01-29T03:53:59.240Z,9.10
2019-01-29T03:56:39.890Z,7.10
2019-01-29T03:59:10.161Z,5.50
2019-01-29T04:01:40.298Z,6.97
2019-01-29T04:04:11.075Z,6.90
2019-01-29T04:09:53.182Z,5.20
2019-01-29T04:12:34.676Z,6.57
2019-01-29T04:15:03.947Z,5.70
2019-01-29T04:17:34.415Z,5.30
2019-01-29T04:20:06.312Z,7.23
2019-01-29T04:22:36.565Z,7.43
2019-01-29T04:25:10.916Z,5.47
2019-01-29T04:27:41.020Z,6.07
2019-01-29T04:30:15.807Z,5.27
2019-01-29T04:32:45.828Z,5.77
2019-01-29T04:35:17.459Z,5.50
2019-01-29T04:37:47.462Z,4.97
2019-01-29T04:40:20.765Z,7.03
2019-01-29T04:46:20.377Z,6.00
2019-01-29T04:48:51.259Z,7.13
2019-01-29T04:51:22.997Z,8.03
2019-01-29T04:53:57.598Z,4.90
2019-01-29T04:56:26.805Z,5.50
2019-01-29T04:58:56.924Z,6.03
2019-01-29T05:01:27.235Z,6.27
2019-01-29T05:04:00.013Z,6.83
2019-01-29T05:06:30.052Z,6.63
2019-01-29T05:09:04.137Z,6.83
2019-01-29T05:11:39.008Z,10.30
2019-01-29T05:14:08.750Z,8.63
2019-01-29T05:16:38.835Z,7.63
2019-01-29T05:19:08.979Z,9.20
2019-01-29T05:21:42.036Z,8.70
2019-01-29T05:24:11.839Z,9.77
2019-01-29T05:26:41.795Z,7.97
2019-01-29T05:29:21.709Z,8.43
2019-01-29T05:31:51.990Z,8.07
2019-01-29T05:34:22.981Z,7.17
2019-01-29T05:36:57.364Z,10.03
2019-01-29T05:39:30.442Z,10.47
2019-01-29T05:42:04.248Z,6.90
2019-01-29T05:44:41.805Z,11.93
2019-01-29T05:47:15.117Z,10.50
2019-01-29T05:49:45.137Z,23.73
2019-01-29T05:52:15.558Z,20.13
2019-01-29T05:54:50.137Z,16.63
2019-01-29T05:57:20.818Z,9.07
2019-01-29T05:59:51.001Z,12.70
2019-01-29T06:02:25.167Z,8.40
2019-01-29T06:04:57.438Z,15.53
2019-01-29T06:07:27.931Z,11.93
2019-01-29T06:09:58.294Z,9.80
2019-01-29T06:12:38.333Z,6.70
2019-01-29T06:15:11.079Z,12.37
2019-01-29T06:17:50.056Z,12.33
2019-01-29T06:20:25.708Z,15.43
2019-01-29T06:22:57.388Z,18.53
2019-01-29T06:25:27.533Z,12.80
2019-01-29T06:27:58.136Z,17.13
2019-01-29T06:30:32.231Z,14.60
2019-01-29T06:33:02.851Z,9.47
2019-01-29T06:35:37.921Z,13.17
2019-01-29T06:38:09.920Z,10.00
2019-01-29T06:40:52.327Z,11.33
2019-01-29T06:43:24.698Z,13.83
2019-01-29T06:45:55.975Z,9.97
2019-01-29T06:48:26.389Z,16.63
2019-01-29T06:50:56.860Z,13.60
2019-01-29T06:53:27.263Z,11.77
2019-01-29T06:56:01.494Z,11.50
2019-01-29T06:58:32.637Z,15.43
2019-01-29T07:01:09.684Z,18.40
2019-01-29T11:46:38.366Z,23.93
2019-01-29T11:49:08.452Z,16.03
2019-01-29T11:51:38.197Z,19.63
2019-01-29T11:54:07.586Z,15.27
2019-01-29T11:56:37.060Z,19.70
2019-01-29T11:59:06.587Z,15.03
2019-01-29T12:01:36.374Z,14.40
2019-01-29T12:04:05.896Z,17.10
2019-01-29T12:06:35.610Z,11.03
2019-01-29T12:09:08.868Z,14.33
2019-01-29T12:11:38.676Z,10.57
2019-01-29T12:14:09.212Z,11.97
2019-01-29T12:16:39.228Z,10.77
2019-01-29T12:19:09.049Z,13.93
2019-01-29T12:21:39.191Z,14.73
2019-01-29T12:24:08.662Z,10.37
2019-01-29T12:26:39.138Z,11.00
2019-01-29T12:29:09.097Z,12.40
2019-01-29T12:31:38.665Z,15.60
2019-01-29T12:34:08.149Z,11.33
2019-01-29T12:36:38.037Z,13.50
2019-01-29T12:39:09.779Z,13.80
2019-01-29T12:41:39.478Z,15.57
2019-01-29T12:44:09.635Z,12.70
2019-01-29T12:46:40.003Z,12.80
2019-01-29T12:49:10.495Z,10.77
2019-01-29T12:52:00.354Z,13.47
2019-01-29T12:54:30.306Z,14.90
2019-01-29T12:57:00.967Z,10.93
2019-01-29T12:59:31.170Z,7.60
2019-01-29T13:02:01.091Z,10.20
2019-01-29T13:04:31.492Z,11.17
2019-01-29T13:07:01.713Z,10.60
2019-01-29T13:09:31.909Z,13.23
2019-01-29T13:12:05.009Z,14.10
2019-01-29T13:14:34.952Z,11.27
2019-01-29T13:17:05.318Z,10.73
2019-01-29T13:19:35.079Z,10.23
2019-01-29T13:22:07.125Z,10.10
2019-01-29T13:24:37.554Z,15.60
2019-01-29T13:27:07.546Z,13.10
2019-01-29T13:29:37.639Z,10.27
2019-01-29T13:32:07.527Z,10.37
2019-01-29T13:34:37.533Z,15.93
2019-01-29T13:37:07.352Z,12.93
2019-01-29T13:39:37.946Z,9.00
2019-01-29T13:42:08.895Z,8.80
2019-01-29T13:44:39.138Z,9.37
2019-01-29T13:47:09.275Z,11.23
2019-01-29T13:49:40.112Z,12.17
2019-01-29T13:52:10.322Z,13.37
2019-01-29T13:54:48.727Z,10.40
2019-01-29T13:57:18.443Z,8.93
2019-01-29T13:59:48.665Z,11.10
2019-01-29T14:02:18.236Z,32.30
2019-01-29T14:04:47.836Z,18.63
2019-01-29T14:07:17.963Z,11.73
2019-01-29T14:09:48.437Z,12.20
2019-01-29T14:12:24.810Z,8.30
2019-01-29T14:15:02.142Z,8.93
2019-01-29T14:17:32.631Z,9.00
2019-01-29T14:20:03.218Z,9.80
2019-01-29T14:22:33.355Z,9.50
2019-01-29T14:25:03.664Z,7.20
2019-01-29T14:27:33.617Z,8.10
2019-01-29T14:30:03.946Z,7.43
2019-01-29T14:32:33.973Z,8.30
2019-01-29T14:35:04.016Z,7.73
2019-01-29T14:38:00.824Z,8.83
2019-01-29T14:40:31.169Z,10.87
2019-01-29T14:43:01.411Z,11.00
2019-01-29T14:45:31.209Z,9.83
2019-01-29T14:48:01.098Z,9.87
2019-01-29T14:50:30.919Z,10.00
2019-01-29T14:53:00.772Z,8.40
2019-01-29T14:55:34.023Z,11.83
2019-01-29T14:58:04.069Z,7.60
2019-01-29T15:00:33.784Z,9.10
2019-01-29T15:03:03.507Z,9.47
2019-01-29T15:05:33.600Z,7.17
2019-01-29T15:08:03.539Z,7.07
2019-01-29T15:10:33.568Z,9.23
2019-01-29T15:13:08.661Z,10.37
2019-01-29T15:15:42.929Z,9.97
2019-01-29T15:18:18.106Z,7.30
2019-01-29T15:20:48.226Z,7.13
2019-01-29T15:23:18.036Z,11.20
2019-01-29T15:25:48.272Z,8.13
2019-01-29T15:28:20.123Z,8.43
2019-01-29T15:30:50.062Z,9.80
2019-01-29T15:33:21.078Z,9.13
2019-01-29T15:35:51.004Z,10.57
2019-01-29T15:38:22.592Z,8.10
2019-01-29T15:40:55.113Z,8.80
2019-01-29T15:43:24.850Z,9.37
2019-01-29T15:45:54.988Z,11.23
2019-01-29T15:48:26.229Z,10.70
2019-01-29T15:50:58.542Z,11.93
2019-01-29T15:53:28.595Z,14.77
2019-01-29T15:55:58.078Z,13.40
2019-01-29T15:58:27.616Z,11.50
2019-01-29T16:00:57.367Z,16.47
2019-01-29T16:03:27.382Z,15.80
2019-01-29T16:05:57.523Z,14.53
2019-01-29T16:08:28.122Z,16.00
2019-01-29T16:11:00.990Z,17.50
2019-01-29T16:13:30.522Z,20.13
2019-01-29T16:16:00.290Z,12.70
2019-01-29T16:18:29.896Z,11.73
2019-01-29T16:21:00.136Z,12.00
2019-01-29T16:23:30.306Z,15.27
2019-01-29T16:26:00.149Z,13.90
2019-01-29T16:28:29.635Z,14.37
2019-01-29T16:30:59.269Z,16.67
2019-01-29T16:33:28.939Z,23.27
2019-01-29T16:35:58.484Z,21.33
2019-01-29T16:38:28.204Z,18.23
2019-01-29T16:41:00.494Z,13.43
2019-01-29T16:43:28.515Z,20.70
2019-01-29T16:45:58.068Z,23.87
2019-01-29T16:48:27.496Z,15.73
2019-01-29T16:50:57.211Z,14.10
2019-01-29T16:53:26.908Z,17.60
2019-01-29T16:55:56.772Z,14.53
2019-01-29T16:58:27.130Z,14.53
2019-01-29T17:00:56.733Z,11.13
2019-01-29T17:03:26.118Z,15.80
2019-01-29T17:05:55.879Z,17.50
2019-01-29T17:08:25.507Z,14.53
2019-01-29T17:10:55.570Z,11.63
2019-01-29T17:13:25.454Z,17.77
2019-01-29T17:15:55.627Z,12.23
2019-01-29T17:18:26.303Z,15.37
2019-01-29T17:39:08.652Z,19.40
2019-01-29T17:41:39.995Z,31.43
2019-01-29T17:44:15.508Z,33.50
2019-01-29T17:46:49.939Z,31.40
2019-01-29T17:49:19.931Z,20.83
2019-01-29T17:51:54.227Z,11.63
2019-01-29T17:54:24.641Z,11.13
2019-01-29T17:56:54.583Z,15.43
2019-01-29T17:59:33.091Z,14.60
2019-01-29T18:02:04.287Z,14.23
2019-01-29T18:04:34.476Z,13.60
2019-01-29T18:07:04.677Z,19.27
2019-01-29T18:09:35.716Z,17.17
2019-01-29T18:12:06.348Z,17.17
2019-01-29T18:14:50.340Z,14.50
2019-01-29T18:17:25.673Z,31.90
2019-01-29T18:20:02.128Z,23.60
2019-01-29T18:22:34.545Z,25.77
2019-01-29T18:25:08.894Z,26.03
2019-01-29T18:27:39.134Z,33.57
2019-01-29T18:30:12.856Z,35.83
2019-01-29T18:32:44.031Z,29.83
2019-01-29T18:35:17.947Z,36.80
2019-01-29T18:37:53.651Z,27.00
2019-01-29T18:41:16.107Z,27.83
2019-01-29T18:44:02.796Z,29.43
2019-01-29T18:46:33.895Z,26.93
2019-01-29T18:49:14.664Z,27.67
2019-01-29T18:51:45.302Z,26.30
2019-01-29T18:54:16.150Z,25.63
2019-01-29T18:56:55.091Z,20.30
2019-01-29T18:59:25.722Z,25.55
2019-01-29T19:01:56.395Z,23.47
2019-01-29T19:04:26.859Z,25.30
2019-01-29T19:07:03.418Z,20.90
2019-01-29T19:09:33.737Z,25.23
2019-01-29T19:12:18.986Z,28.00
2019-01-29T19:14:53.651Z,22.03
2019-01-29T19:17:28.821Z,26.27
2019-01-29T19:19:59.642Z,29.37
2019-01-29T19:22:52.004Z,28.43
2019-01-29T19:25:47.713Z,28.50
2019-01-29T19:28:22.469Z,25.33
2019-01-29T19:30:58.789Z,26.03
2019-01-29T19:33:33.508Z,30.03
2019-01-29T19:36:12.845Z,23.77
2019-01-29T19:38:54.532Z,25.50
2019-01-29T19:41:24.921Z,28.17
2019-01-29T19:43:56.123Z,30.70
2019-01-29T19:46:30.897Z,26.90
2019-01-29T19:49:01.212Z,27.77
2019-01-29T19:51:43.906Z,31.67
2019-01-29T19:54:14.713Z,36.33
2019-01-29T19:56:44.925Z,34.17
2019-01-29T19:59:23.320Z,33.17
2019-01-29T20:01:47.366Z,29.10
2019-01-29T20:04:18.859Z,33.37
2019-01-29T20:06:52.653Z,22.40
2019-01-29T20:09:25.476Z,24.40
2019-01-29T20:11:59.512Z,14.00
2019-01-29T20:14:29.400Z,28.90
2019-01-29T20:16:59.286Z,31.57
2019-01-29T20:19:30.632Z,30.67
2019-01-29T20:22:00.923Z,28.83
2019-01-29T20:24:30.992Z,26.93
2019-01-29T20:27:06.114Z,22.87
2019-01-29T20:29:38.790Z,24.07
2019-01-29T20:32:53.485Z,23.70
2019-01-29T20:35:32.064Z,24.63
2019-01-29T20:38:21.624Z,20.90
2019-01-29T20:40:52.372Z,22.00
2019-01-29T20:43:26.373Z,22.50
2019-01-29T20:46:16.820Z,26.40
2019-01-29T20:48:51.931Z,23.27
2019-01-29T20:51:24.320Z,23.83
2019-01-29T20:53:57.774Z,19.10
2019-01-29T20:56:27.761Z,27.03
2019-01-29T20:58:59.234Z,21.70
2019-01-29T21:01:29.544Z,28.77
2019-01-29T21:03:59.718Z,20.47
2019-01-29T21:06:30.226Z,22.13
2019-01-29T21:09:00.927Z,27.37
2019-01-29T21:11:30.992Z,24.67
2019-01-29T21:14:00.981Z,22.47
2019-01-29T21:16:51.140Z,22.07
2019-01-29T21:19:50.835Z,25.37
2019-01-29T21:22:22.527Z,22.00
2019-01-29T21:24:56.500Z,25.20
2019-01-29T21:27:27.753Z,21.13
2019-01-29T21:29:57.902Z,24.77
2019-01-29T21:32:28.221Z,18.40
2019-01-29T21:35:10.951Z,19.83
2019-01-29T21:37:41.332Z,21.57
2019-01-29T21:40:12.439Z,20.17
2019-01-29T21:42:42.954Z,23.70
2019-01-29T21:45:16.933Z,18.20
2019-01-29T21:47:46.780Z,21.30
2019-01-29T21:50:24.289Z,19.47
2019-01-29T21:52:54.558Z,18.67
2019-01-29T21:55:31.317Z,20.13
2019-01-29T21:58:02.036Z,20.80
2019-01-29T22:00:45.300Z,17.00
2019-01-29T22:03:16.665Z,18.33
2019-01-29T22:05:47.040Z,20.10
2019-01-29T22:08:24.923Z,18.70
2019-01-29T22:11:00.245Z,19.37
2019-01-29T22:13:30.369Z,16.43
2019-01-29T22:16:05.981Z,16.97
2019-01-29T22:18:38.362Z,16.50
2019-01-29T22:21:11.961Z,19.70
2019-01-29T22:23:48.900Z,18.73
2019-01-29T22:26:19.600Z,19.25
2019-01-29T22:28:56.662Z,21.20
2019-01-29T22:31:30.895Z,16.17
2019-01-29T22:34:00.848Z,13.97
2019-01-29T22:36:39.934Z,18.80
2019-01-29T22:39:18.639Z,19.03
2019-01-29T22:41:49.244Z,16.20
2019-01-29T22:44:19.863Z,16.40
2019-01-29T22:46:50.713Z,17.03
2019-01-29T22:49:26.675Z,16.57
2019-01-29T22:51:59.102Z,20.53
2019-01-29T22:54:29.412Z,19.70
2019-01-29T22:56:59.835Z,16.60
2019-01-29T22:59:33.723Z,17.93
2019-01-29T23:02:03.970Z,14.50
2019-01-29T23:04:39.515Z,14.00
2019-01-29T23:07:28.021Z,13.90
2019-01-29T23:10:08.460Z,14.13
2019-01-29T23:12:45.840Z,11.23
2019-01-29T23:15:18.141Z,13.75
2019-01-29T23:17:48.209Z,12.57
2019-01-29T23:20:19.293Z,10.77
2019-01-29T23:22:49.976Z,12.77
2019-01-29T23:25:24.005Z,12.80
2019-01-29T23:27:57.914Z,11.23
2019-01-29T23:30:28.395Z,10.60
2019-01-29T23:33:02.500Z,10.20
2019-01-29T23:35:37.109Z,11.57
2019-01-29T23:38:23.986Z,12.60
2019-01-29T23:40:56.083Z,11.77
2019-01-29T23:43:26.585Z,12.40
2019-01-29T23:45:56.064Z,13.53
2019-01-29T23:48:26.625Z,11.87
2019-01-29T23:51:00.950Z,11.53
2019-01-29T23:53:39.342Z,12.17
2019-01-29T23:56:25.754Z,11.03
2019-01-29T23:59:00.455Z,12.03
